Time;durP1;ratioP1;P1;durP2;ratioP2;P2;SDS_P1;SDS_P2;PMS_P1;PMS_P2;Temp;Humidity;BMP_temperature;BMP_pressure;BME280_temperature;BME280_humidity;BME280_pressure;Samples;Min_cycle;Max_cycle;Signal;HPM_P1;HPM_P2
2022/01/25 00:24:13;;;;;;;9.05;6.07;;;-0.30;99.90;;;;;;5050662;28;20071;-76
2022/01/25 00:24:21;;;;;;;10.40;7.18;;;-0.30;99.90;;;;;;5027804;28;20087;-76
2022/01/25 00:27:05;;;;;;;11.88;7.32;;;-0.30;99.90;;;;;;5050076;28;20057;-76
2022/01/25 00:29:47;;;;;;;7.30;5.95;;;-0.30;99.90;;;;;;5051299;28;20631;-76
2022/01/25 00:32:17;;;;;;;10.15;6.55;;;-0.30;99.90;;;;;;5032713;28;20049;-76
2022/01/25 00:34:44;;;;;;;11.27;7.00;;;-0.20;99.90;;;;;;5049537;28;20506;-75
2022/01/25 00:37:12;;;;;;;10.77;7.10;;;-0.20;99.90;;;;;;5033576;28;20049;-75
2022/01/25 00:39:41;;;;;;;9.70;7.45;;;-0.20;99.90;;;;;;5046560;28;20060;-75
2022/01/25 00:42:10;;;;;;;10.05;6.70;;;-0.10;99.90;;;;;;5048543;28;20099;-75
2022/01/25 00:44:40;;;;;;;46.88;42.78;;;-0.10;99.90;;;;;;5038249;28;20053;-76
2022/01/25 00:47:08;;;;;;;10.23;6.85;;;-0.10;99.90;;;;;;5050989;28;20057;-76
2022/01/25 00:49:40;;;;;;;13.13;6.50;;;-0.10;99.90;;;;;;5048341;28;20094;-76
2022/01/25 00:52:23;;;;;;;8.02;6.50;;;0.00;99.90;;;;;;5050958;28;20049;-76
2022/01/25 00:54:51;;;;;;;7.38;6.28;;;0.00;99.90;;;;;;5050730;28;20144;-76
2022/01/25 00:57:20;;;;;;;12.23;10.68;;;0.00;99.90;;;;;;5050581;28;20531;-76
2022/01/25 00:59:48;;;;;;;9.02;6.05;;;0.00;99.90;;;;;;5049588;28;20053;-76
2022/01/25 01:02:16;;;;;;;9.13;6.18;;;0.00;99.90;;;;;;5050491;28;20515;-76
2022/01/25 01:04:44;;;;;;;7.30;6.38;;;0.00;99.90;;;;;;5049300;28;20056;-76
2022/01/25 01:07:14;;;;;;;7.90;6.60;;;0.10;99.90;;;;;;5032736;28;20133;-76
2022/01/25 01:09:44;;;;;;;9.70;6.15;;;0.10;99.90;;;;;;5049873;28;20041;-76
2022/01/25 01:12:23;;;;;;;10.43;7.10;;;0.10;99.90;;;;;;5050984;28;20084;-76
2022/01/25 01:15:05;;;;;;;12.38;6.90;;;0.10;99.90;;;;;;5051251;28;20072;-76
2022/01/25 01:31:37;;;;;;;10.88;6.47;;;0.20;99.90;;;;;;5066205;28;20540;-76
2022/01/25 01:37:14;;;;;;;7.90;6.20;;;0.30;99.90;;;;;;5026571;28;20422;-75
2022/01/25 01:40:00;;;;;;;10.00;6.40;;;0.30;99.90;;;;;;5029389;28;20042;-76
2022/01/25 01:45:35;;;;;;;10.65;6.40;;;0.40;99.90;;;;;;5030000;28;20079;-73
2022/01/25 01:48:07;;;;;;;12.20;7.07;;;0.40;99.90;;;;;;5029117;28;20045;-73
2022/01/25 01:50:36;;;;;;;10.00;6.23;;;0.50;99.90;;;;;;5036739;28;20402;-73
2022/01/25 01:53:07;;;;;;;18.55;7.43;;;0.60;99.90;;;;;;5050618;28;20311;-71
2022/01/25 01:55:37;;;;;;;10.70;6.38;;;0.60;99.90;;;;;;5053844;28;20068;-72
2022/01/25 01:58:05;;;;;;;15.88;7.47;;;0.60;99.90;;;;;;5054280;28;20399;-71
2022/01/25 02:00:38;;;;;;;10.98;6.15;;;0.60;99.90;;;;;;5053847;28;20099;-72
2022/01/25 02:03:10;;;;;;;20.45;18.50;;;0.60;99.90;;;;;;5053157;28;20057;-72
2022/01/25 02:05:40;;;;;;;8.75;5.78;;;0.70;99.90;;;;;;5054198;28;20465;-72
2022/01/25 02:08:08;;;;;;;8.60;5.97;;;0.70;99.90;;;;;;5052563;28;20060;-71
2022/01/25 02:10:39;;;;;;;12.07;6.45;;;0.80;99.90;;;;;;5053697;28;20053;-72
2022/01/25 02:13:08;;;;;;;8.25;5.72;;;0.80;99.90;;;;;;5053069;28;20048;-75
2022/01/25 02:15:38;;;;;;;8.13;6.13;;;0.80;99.90;;;;;;5051848;28;20048;-75
2022/01/25 02:23:40;;;;;;;10.55;5.65;;;0.80;99.90;;;;;;5032078;28;20045;-75
2022/01/25 02:26:09;;;;;;;12.20;7.15;;;0.90;99.90;;;;;;5032260;28;20112;-75
2022/01/25 02:28:39;;;;;;;7.15;6.45;;;1.00;99.90;;;;;;5033412;28;20049;-75
2022/01/25 02:31:10;;;;;;;18.55;17.02;;;0.90;99.90;;;;;;5049475;28;20051;-75
2022/01/25 02:33:38;;;;;;;26.30;23.90;;;0.90;99.90;;;;;;5052275;28;20049;-75
2022/01/25 02:36:10;;;;;;;8.68;6.25;;;1.00;99.90;;;;;;5053168;28;20064;-75
2022/01/25 02:38:38;;;;;;;10.15;6.03;;;0.90;99.90;;;;;;5052419;28;20055;-74
2022/01/25 02:41:06;;;;;;;9.07;5.78;;;1.00;99.90;;;;;;5051691;28;20517;-75
2022/01/25 02:43:35;;;;;;;10.52;5.97;;;1.00;99.90;;;;;;5053200;28;20051;-74
2022/01/25 02:46:20;;;;;;;15.07;6.68;;;1.00;99.90;;;;;;5053136;28;20567;-75
2022/01/25 02:48:53;;;;;;;13.27;6.63;;;1.10;99.90;;;;;;5046611;28;20444;-75
2022/01/25 02:51:26;;;;;;;7.63;6.28;;;1.10;99.90;;;;;;5041396;28;20095;-75
2022/01/25 02:53:54;;;;;;;14.43;5.75;;;1.00;99.90;;;;;;5040163;28;20049;-75
2022/01/25 02:56:23;;;;;;;12.43;6.13;;;1.10;99.90;;;;;;5051229;28;20037;-76
2022/01/25 02:58:52;;;;;;;15.00;6.55;;;1.20;99.90;;;;;;5052719;28;20529;-76
2022/01/25 03:01:21;;;;;;;14.13;6.07;;;1.30;99.90;;;;;;5052037;28;20138;-75
2022/01/25 03:03:48;;;;;;;9.30;6.43;;;1.30;99.90;;;;;;5052420;28;20123;-76
2022/01/25 03:06:20;;;;;;;11.07;5.65;;;1.40;99.90;;;;;;5051825;28;20049;-76
2022/01/25 03:08:55;;;;;;;10.75;5.78;;;1.40;99.90;;;;;;5052517;28;20123;-75
2022/01/25 03:11:24;;;;;;;12.52;6.45;;;1.40;99.90;;;;;;5034512;28;20098;-75
2022/01/25 03:13:55;;;;;;;10.20;5.57;;;1.40;99.90;;;;;;5052385;28;20044;-75
2022/01/25 03:16:31;;;;;;;7.88;5.80;;;1.40;99.90;;;;;;5050292;28;20094;-75
2022/01/25 03:19:01;;;;;;;9.82;6.00;;;1.50;99.90;;;;;;5052562;28;20085;-74
2022/01/25 03:21:38;;;;;;;8.52;5.72;;;1.50;99.90;;;;;;5052197;28;20342;-75
2022/01/25 03:24:08;;;;;;;7.32;6.15;;;1.50;99.90;;;;;;5050029;28;20072;-75
2022/01/25 03:26:36;;;;;;;9.57;6.22;;;1.60;99.90;;;;;;5051921;28;20118;-76
2022/01/25 03:29:05;;;;;;;9.18;6.65;;;1.50;99.90;;;;;;5050484;28;20090;-76
2022/01/25 03:31:36;;;;;;;12.13;6.53;;;1.60;99.90;;;;;;5051752;28;20041;-75
2022/01/25 03:34:03;;;;;;;8.73;5.95;;;1.60;99.90;;;;;;5049445;28;20429;-72
2022/01/25 03:36:31;;;;;;;10.35;6.63;;;1.60;99.90;;;;;;5030471;28;20132;-72
2022/01/25 03:38:59;;;;;;;11.38;7.18;;;1.60;99.90;;;;;;5032342;28;20065;-73
2022/01/25 03:41:28;;;;;;;10.30;7.22;;;1.60;99.90;;;;;;5031320;28;20336;-74
2022/01/25 03:43:56;;;;;;;12.38;7.40;;;1.60;99.90;;;;;;5051398;28;20048;-73
2022/01/25 03:46:33;;;;;;;11.98;7.32;;;1.60;99.90;;;;;;5051847;28;20056;-74
2022/01/25 03:51:47;;;;;;;25.27;21.50;;;1.70;99.90;;;;;;5049081;28;20051;-73
2022/01/25 03:54:15;;;;;;;15.05;7.70;;;1.70;99.90;;;;;;5043765;28;20044;-71
2022/01/25 03:56:43;;;;;;;16.63;8.10;;;1.60;99.90;;;;;;5063088;28;20382;-72
2022/01/25 03:59:11;;;;;;;9.65;7.43;;;1.70;99.90;;;;;;5052097;28;20519;-72
2022/01/25 04:01:39;;;;;;;15.57;8.30;;;1.80;99.90;;;;;;5048481;28;20053;-72
2022/01/25 04:04:11;;;;;;;11.15;7.35;;;1.80;99.90;;;;;;5050998;28;20405;-72
2022/01/25 04:06:42;;;;;;;21.40;16.17;;;1.90;99.90;;;;;;5044509;28;20085;-72
2022/01/25 04:09:09;;;;;;;12.40;7.53;;;1.90;99.90;;;;;;5049199;28;20055;-74
2022/01/25 04:11:38;;;;;;;11.32;7.80;;;1.90;99.90;;;;;;5051479;28;20111;-72
2022/01/25 04:14:07;;;;;;;11.20;8.38;;;1.90;99.90;;;;;;5039723;28;20049;-75
2022/01/25 04:16:40;;;;;;;10.02;8.27;;;2.00;99.90;;;;;;5049077;28;20090;-76
2022/01/25 04:19:12;;;;;;;13.13;8.75;;;2.00;99.90;;;;;;5049538;28;20045;-75
2022/01/25 04:24:42;;;;;;;13.43;8.70;;;2.00;99.90;;;;;;5051212;28;20466;-75
2022/01/25 04:27:21;;;;;;;13.85;7.65;;;2.00;99.90;;;;;;5033419;28;20178;-75
2022/01/25 04:29:50;;;;;;;14.30;10.23;;;2.00;99.90;;;;;;5050938;28;20049;-75
2022/01/25 04:32:19;;;;;;;13.02;9.60;;;2.10;99.90;;;;;;5051013;28;20053;-76
2022/01/25 04:35:07;;;;;;;11.15;10.05;;;2.10;99.90;;;;;;5051121;28;20041;-76
2022/01/25 04:48:56;;;;;;;13.32;7.15;;;2.20;99.90;;;;;;5050269;28;20053;-77
2022/01/25 04:51:40;;;;;;;13.23;7.03;;;2.20;99.90;;;;;;5028446;28;20052;-77
2022/01/25 04:54:15;;;;;;;16.73;12.20;;;2.20;99.90;;;;;;5028968;28;20406;-76
2022/01/25 04:56:50;;;;;;;12.77;11.27;;;2.20;99.90;;;;;;5048959;28;20073;-75
2022/01/25 04:59:25;;;;;;;9.02;7.00;;;2.20;99.90;;;;;;5048395;28;20541;-75
2022/01/25 05:02:00;;;;;;;79.28;74.78;;;2.20;99.90;;;;;;5047242;28;20063;-75
2022/01/25 05:04:31;;;;;;;14.82;6.07;;;2.20;99.90;;;;;;5042364;28;20131;-76
2022/01/25 05:07:09;;;;;;;11.27;5.57;;;2.20;99.90;;;;;;5049369;28;20060;-76
2022/01/25 05:09:38;;;;;;;10.07;6.22;;;2.30;99.90;;;;;;5048590;28;20060;-76
2022/01/25 05:12:09;;;;;;;11.02;6.20;;;2.30;99.90;;;;;;5043164;28;20079;-75
2022/01/25 05:14:47;;;;;;;10.07;5.85;;;2.30;99.90;;;;;;5041697;28;20068;-77
2022/01/25 05:17:19;;;;;;;7.60;5.47;;;2.30;99.90;;;;;;5028943;28;20049;-76
2022/01/25 05:22:36;;;;;;;11.32;6.00;;;2.30;99.90;;;;;;5045669;28;20084;-76
2022/01/25 05:25:05;;;;;;;9.68;5.55;;;2.40;99.90;;;;;;5047079;28;20047;-76
2022/01/25 05:27:32;;;;;;;9.73;5.50;;;2.30;99.90;;;;;;5046626;28;20049;-75
2022/01/25 05:30:03;;;;;;;13.13;5.18;;;2.30;99.90;;;;;;5050922;28;20496;-77
2022/01/25 05:32:34;;;;;;;8.98;4.80;;;2.30;99.90;;;;;;5050135;28;20429;-77
2022/01/25 05:35:02;;;;;;;6.20;4.68;;;2.30;99.90;;;;;;5051270;28;20131;-76
2022/01/25 05:37:32;;;;;;;11.65;4.75;;;2.30;99.90;;;;;;5033685;28;20517;-75
2022/01/25 05:40:01;;;;;;;10.02;4.45;;;2.30;99.90;;;;;;5049865;28;20049;-77
2022/01/25 05:42:46;;;;;;;9.02;4.38;;;2.30;99.90;;;;;;5054160;28;20052;-77
2022/01/25 05:45:21;;;;;;;6.10;4.03;;;2.30;99.90;;;;;;5054036;28;20045;-77
2022/01/25 05:47:50;;;;;;;9.77;4.10;;;2.30;99.90;;;;;;5052534;28;20053;-77
2022/01/25 05:50:17;;;;;;;8.95;4.30;;;2.30;99.90;;;;;;5051104;28;20127;-77
2022/01/25 05:52:45;;;;;;;7.32;4.10;;;2.30;99.90;;;;;;5053483;28;20056;-77
2022/01/25 05:55:15;;;;;;;9.23;4.32;;;2.30;99.90;;;;;;5053928;28;20401;-76
2022/01/25 05:57:42;;;;;;;8.43;3.70;;;2.30;99.90;;;;;;5051978;28;20060;-76
2022/01/25 06:00:11;;;;;;;7.90;3.80;;;2.30;99.90;;;;;;5054190;28;20045;-76
2022/01/25 06:02:38;;;;;;;6.13;3.47;;;2.30;99.90;;;;;;5051160;28;20045;-76
2022/01/25 06:05:08;;;;;;;8.93;4.13;;;2.30;99.90;;;;;;5051652;28;20047;-76
2022/01/25 06:07:36;;;;;;;9.02;4.75;;;2.30;99.90;;;;;;5052666;28;20049;-76
2022/01/25 06:10:04;;;;;;;5.88;5.03;;;2.20;99.90;;;;;;5053451;28;20505;-76
2022/01/25 06:12:31;;;;;;;10.80;4.85;;;2.20;99.90;;;;;;5051053;28;20056;-76
2022/01/25 06:14:59;;;;;;;8.95;5.18;;;2.20;99.90;;;;;;5052760;28;20091;-77
2022/01/25 06:17:26;;;;;;;9.80;4.90;;;2.20;99.90;;;;;;5049633;28;20456;-76
2022/01/25 06:19:53;;;;;;;13.25;6.38;;;2.20;99.90;;;;;;5052517;28;20041;-76
2022/01/25 06:22:23;;;;;;;12.32;6.45;;;2.20;99.90;;;;;;5052101;28;20126;-76
2022/01/25 06:24:50;;;;;;;12.15;6.50;;;2.20;99.90;;;;;;5051160;28;20051;-75
2022/01/25 06:27:17;;;;;;;10.48;6.50;;;2.20;99.90;;;;;;5049382;28;20045;-76
2022/01/25 06:29:46;;;;;;;11.18;6.60;;;2.20;99.90;;;;;;5051049;28;20049;-76
2022/01/25 06:32:16;;;;;;;9.80;5.22;;;2.20;99.90;;;;;;5049894;28;20049;-76
2022/01/25 06:34:44;;;;;;;6.85;5.93;;;2.20;99.90;;;;;;5048938;28;20122;-77
2022/01/25 06:37:12;;;;;;;13.60;5.32;;;2.10;99.90;;;;;;5049546;28;20041;-77
2022/01/25 06:39:44;;;;;;;11.38;6.10;;;2.10;99.90;;;;;;5050210;28;20049;-77
2022/01/25 06:42:12;;;;;;;8.55;5.80;;;2.10;99.90;;;;;;5050157;28;20436;-77
2022/01/25 06:44:39;;;;;;;11.77;6.80;;;2.20;99.90;;;;;;5049502;28;20497;-76
2022/01/25 06:47:07;;;;;;;14.82;7.60;;;2.10;99.90;;;;;;5048234;28;20045;-76
2022/01/25 06:49:35;;;;;;;11.13;7.45;;;2.10;99.90;;;;;;5047785;28;20045;-76
2022/01/25 06:52:03;;;;;;;12.10;8.38;;;2.10;99.90;;;;;;5034715;28;20136;-77
2022/01/25 06:54:30;;;;;;;11.57;7.90;;;2.10;99.90;;;;;;5050978;28;20651;-77
2022/01/25 06:56:59;;;;;;;13.00;8.43;;;2.10;99.90;;;;;;5048572;28;20053;-77
2022/01/25 06:59:27;;;;;;;12.25;8.45;;;2.10;99.90;;;;;;5031236;28;20412;-76
2022/01/25 07:01:54;;;;;;;14.98;10.88;;;2.10;99.90;;;;;;5051191;28;20394;-77
2022/01/25 07:04:22;;;;;;;16.20;8.90;;;2.10;99.90;;;;;;5052423;28;20056;-77
2022/01/25 07:06:49;;;;;;;14.90;8.75;;;2.10;99.90;;;;;;5033845;28;20537;-76
2022/01/25 07:09:17;;;;;;;12.48;9.07;;;2.10;99.90;;;;;;5052382;28;20137;-76
2022/01/25 07:11:44;;;;;;;18.60;11.98;;;2.10;99.90;;;;;;5051459;28;20155;-76
2022/01/25 07:14:13;;;;;;;16.58;9.82;;;2.20;99.90;;;;;;5051615;28;20900;-78
2022/01/25 07:16:41;;;;;;;15.27;10.00;;;2.20;99.90;;;;;;5051692;28;20095;-77
2022/01/25 07:19:08;;;;;;;11.77;10.25;;;2.20;99.90;;;;;;5050227;28;20045;-77
2022/01/25 07:21:35;;;;;;;11.82;10.55;;;2.20;99.90;;;;;;5029763;28;20088;-77
2022/01/25 07:24:03;;;;;;;10.48;9.65;;;2.20;99.90;;;;;;5047292;28;20048;-77
2022/01/25 07:26:30;;;;;;;12.45;11.15;;;2.10;99.90;;;;;;5047784;28;20053;-77
2022/01/25 07:28:58;;;;;;;11.55;8.82;;;2.10;99.90;;;;;;5052036;28;20064;-77
2022/01/25 07:31:29;;;;;;;16.73;11.07;;;2.10;99.90;;;;;;5050425;28;20411;-78
2022/01/25 07:33:57;;;;;;;29.38;27.38;;;2.10;99.90;;;;;;5051250;28;20080;-76
2022/01/25 07:36:24;;;;;;;12.88;11.85;;;2.00;99.90;;;;;;5050995;28;20064;-77
2022/01/25 07:38:52;;;;;;;11.02;8.27;;;2.00;99.90;;;;;;5049544;28;20106;-76
2022/01/25 07:41:21;;;;;;;12.80;8.73;;;1.90;99.90;;;;;;5051783;28;20049;-77
2022/01/25 07:43:51;;;;;;;20.58;14.55;;;1.90;99.90;;;;;;5052881;28;20049;-78
2022/01/25 07:46:19;;;;;;;39.92;23.48;;;1.90;99.90;;;;;;5051619;28;20049;-76
2022/01/25 07:48:48;;;;;;;26.25;15.15;;;1.90;99.90;;;;;;5051052;28;20151;-76
2022/01/25 07:51:16;;;;;;;15.88;12.90;;;1.90;99.90;;;;;;5043803;28;20057;-76
2022/01/25 07:53:44;;;;;;;14.85;9.70;;;2.00;99.90;;;;;;5038561;28;20045;-76
2022/01/25 07:56:12;;;;;;;10.57;9.48;;;2.00;99.90;;;;;;5046372;28;20099;-77
2022/01/25 07:58:40;;;;;;;10.00;9.13;;;2.10;99.90;;;;;;5050281;28;20049;-77
2022/01/25 08:01:07;;;;;;;11.18;9.50;;;2.10;99.90;;;;;;5029645;28;20143;-77
2022/01/25 08:03:34;;;;;;;12.77;11.75;;;2.10;99.90;;;;;;5033631;28;20068;-77
2022/01/25 08:06:04;;;;;;;12.10;11.13;;;2.10;99.90;;;;;;5030766;28;20060;-77
2022/01/25 08:08:33;;;;;;;10.52;9.52;;;2.20;99.90;;;;;;5048751;28;20056;-76
2022/01/25 08:11:00;;;;;;;16.27;8.45;;;2.20;99.90;;;;;;5049616;28;20098;-77
2022/01/25 08:13:27;;;;;;;9.82;8.88;;;2.30;99.90;;;;;;5050022;28;20036;-75
2022/01/25 08:15:55;;;;;;;11.05;9.52;;;2.30;99.90;;;;;;5028180;28;20053;-77
2022/01/25 08:18:22;;;;;;;10.15;9.45;;;2.40;99.90;;;;;;5047891;28;20478;-77
2022/01/25 08:20:50;;;;;;;12.43;8.23;;;2.50;99.90;;;;;;5030153;28;20398;-77
2022/01/25 08:23:18;;;;;;;9.55;8.73;;;2.60;99.90;;;;;;5049154;28;20041;-77
2022/01/25 08:25:46;;;;;;;25.10;16.42;;;2.70;99.90;;;;;;5035634;28;20049;-76
2022/01/25 08:28:13;;;;;;;14.45;10.85;;;2.60;99.90;;;;;;5043904;28;20042;-78
2022/01/25 08:30:41;;;;;;;6.53;4.65;;;2.60;99.90;;;;;;5049020;28;20918;-78
2022/01/25 08:33:08;;;;;;;10.43;4.32;;;2.60;99.90;;;;;;5050021;28;20045;-76
2022/01/25 08:35:36;;;;;;;11.75;5.47;;;2.60;99.90;;;;;;5050382;28;20129;-75
2022/01/25 08:38:03;;;;;;;19.05;7.55;;;2.50;99.90;;;;;;5049867;28;20057;-75
2022/01/25 08:40:33;;;;;;;10.18;6.28;;;2.40;99.90;;;;;;5049906;28;20140;-75
2022/01/25 08:43:02;;;;;;;12.93;4.80;;;2.40;99.90;;;;;;5032342;28;20594;-75
2022/01/25 08:45:29;;;;;;;14.43;5.63;;;2.40;99.90;;;;;;5032556;28;20049;-76
2022/01/25 08:47:57;;;;;;;12.85;4.93;;;2.40;99.90;;;;;;5048063;28;20580;-76
2022/01/25 08:50:25;;;;;;;10.27;4.82;;;2.50;99.90;;;;;;5049401;28;20045;-76
2022/01/25 08:52:52;;;;;;;13.73;5.18;;;2.50;99.90;;;;;;5048766;28;20044;-76
2022/01/25 08:55:20;;;;;;;10.73;5.18;;;2.50;99.90;;;;;;5048260;28;20056;-75
2022/01/25 08:57:48;;;;;;;11.13;8.00;;;2.60;99.90;;;;;;5047691;28;20139;-76
2022/01/25 09:00:17;;;;;;;9.57;6.15;;;2.60;99.90;;;;;;5048429;28;20045;-77
2022/01/25 09:02:44;;;;;;;10.73;6.72;;;2.60;99.90;;;;;;5048374;28;20506;-75
2022/01/25 09:05:13;;;;;;;6.45;5.85;;;2.60;99.90;;;;;;5050222;28;20053;-77
2022/01/25 09:07:41;;;;;;;10.02;8.57;;;2.60;99.90;;;;;;5031835;28;20059;-76
2022/01/25 09:10:09;;;;;;;10.88;5.00;;;2.60;99.90;;;;;;5047138;28;20566;-76
2022/01/25 09:12:36;;;;;;;6.80;5.07;;;2.60;99.90;;;;;;5046416;28;20144;-76
2022/01/25 09:15:06;;;;;;;10.52;4.53;;;2.60;99.90;;;;;;5049918;28;20052;-76
2022/01/25 09:17:34;;;;;;;5.88;4.72;;;2.70;99.90;;;;;;5049534;28;20045;-76
2022/01/25 09:20:02;;;;;;;15.15;6.35;;;2.70;99.90;;;;;;5049253;28;20640;-76
2022/01/25 09:22:31;;;;;;;7.20;5.25;;;2.70;99.90;;;;;;5049468;28;20045;-76
2022/01/25 09:24:58;;;;;;;12.50;11.20;;;2.70;99.90;;;;;;5048077;28;20041;-76
2022/01/25 09:27:26;;;;;;;11.77;8.30;;;2.70;99.90;;;;;;5049533;28;20053;-77
2022/01/25 09:29:53;;;;;;;14.98;6.40;;;2.70;99.90;;;;;;5048197;28;20049;-77
2022/01/25 09:32:23;;;;;;;12.70;6.40;;;2.70;99.90;;;;;;5049109;28;20497;-77
2022/01/25 09:34:51;;;;;;;5.93;5.40;;;2.80;99.90;;;;;;5049999;28;20060;-76
2022/01/25 09:37:19;;;;;;;9.43;6.68;;;2.70;99.90;;;;;;5049914;28;20052;-77
2022/01/25 09:39:46;;;;;;;5.80;5.28;;;2.80;99.90;;;;;;5041584;28;20327;-77
2022/01/25 09:42:13;;;;;;;8.48;7.63;;;2.90;99.90;;;;;;5045323;28;20056;-76
2022/01/25 09:44:43;;;;;;;9.85;4.57;;;3.10;99.90;;;;;;5049298;28;20421;-77
2022/01/25 09:47:11;;;;;;;7.03;4.35;;;3.30;99.90;;;;;;5047919;28;20532;-78
2022/01/25 09:49:40;;;;;;;5.90;4.85;;;3.30;99.90;;;;;;5048971;28;20501;-75
2022/01/25 09:52:09;;;;;;;7.82;2.95;;;3.20;99.90;;;;;;5049064;28;20049;-74
2022/01/25 09:54:37;;;;;;;6.72;3.20;;;3.10;99.90;;;;;;5049366;28;20083;-75
2022/01/25 09:57:06;;;;;;;10.93;3.78;;;3.10;99.90;;;;;;5049396;28;20045;-77
2022/01/25 09:59:34;;;;;;;9.40;3.05;;;3.10;99.90;;;;;;5049542;28;20389;-76
2022/01/25 10:02:01;;;;;;;7.15;4.70;;;3.10;99.90;;;;;;5032236;28;20099;-77
2022/01/25 10:04:34;;;;;;;3.42;3.13;;;3.20;99.90;;;;;;5065313;28;20060;-76
2022/01/25 10:07:05;;;;;;;5.45;2.80;;;3.30;99.90;;;;;;5047385;28;20064;-77
2022/01/25 10:09:33;;;;;;;5.72;3.28;;;3.40;99.90;;;;;;5049793;28;20132;-79
2022/01/25 10:12:20;;;;;;;8.05;3.85;;;3.40;99.90;;;;;;5047263;28;20123;-78
2022/01/25 10:15:09;;;;;;;5.30;2.15;;;3.50;99.90;;;;;;5048680;28;20171;-80
2022/01/25 10:17:41;;;;;;;6.90;3.17;;;3.30;99.90;;;;;;5049543;28;20041;-77
2022/01/25 10:20:26;;;;;;;8.38;2.85;;;3.30;99.90;;;;;;5052736;28;20060;-76
2022/01/25 10:22:59;;;;;;;8.80;3.50;;;3.30;99.90;;;;;;5051997;28;20060;-75
2022/01/25 10:25:31;;;;;;;;;;;3.30;99.90;;;;;;5052689;28;20045;-75
2022/01/25 10:28:03;;;;;;;9.25;3.70;;;3.20;99.90;;;;;;5051820;28;19932;-77
2022/01/25 10:30:37;;;;;;;3.85;3.30;;;3.20;99.90;;;;;;5050577;28;20049;-77
2022/01/25 10:33:19;;;;;;;9.05;6.43;;;3.20;99.90;;;;;;5048451;28;20045;-77
2022/01/25 10:35:47;;;;;;;7.30;4.28;;;3.10;99.90;;;;;;5049956;28;20600;-77
2022/01/25 10:38:25;;;;;;;5.45;3.63;;;2.90;99.90;;;;;;5047771;28;20041;-76
2022/01/25 10:40:59;;;;;;;9.02;3.50;;;2.80;99.90;;;;;;5048926;28;20057;-77
2022/01/25 10:43:30;;;;;;;5.72;3.42;;;2.60;99.90;;;;;;5048146;28;20040;-77
2022/01/25 10:46:18;;;;;;;9.25;3.40;;;2.50;99.90;;;;;;5050964;28;20548;-77
2022/01/25 10:48:51;;;;;;;9.45;3.80;;;2.50;99.90;;;;;;5049707;28;20045;-77
2022/01/25 10:51:23;;;;;;;9.77;5.95;;;2.40;99.90;;;;;;5052580;28;20053;-77
2022/01/25 10:54:11;;;;;;;4.13;3.43;;;2.30;99.90;;;;;;5052586;28;20139;-79
2022/01/25 10:56:46;;;;;;;9.20;4.22;;;2.30;99.90;;;;;;5050481;28;20776;-77
2022/01/25 10:59:18;;;;;;;3.75;3.50;;;2.40;99.90;;;;;;5051468;28;20596;-77
2022/01/25 11:01:55;;;;;;;7.65;3.88;;;2.40;99.90;;;;;;5050176;28;20049;-77
2022/01/25 11:04:26;;;;;;;4.30;3.90;;;2.40;99.90;;;;;;5052316;28;20513;-76
2022/01/25 11:07:00;;;;;;;6.68;5.00;;;2.60;99.90;;;;;;5051448;28;20049;-75
2022/01/25 11:09:36;;;;;;;6.20;2.72;;;2.70;99.90;;;;;;5052069;28;20048;-79
2022/01/25 11:12:06;;;;;;;8.30;3.42;;;2.90;99.90;;;;;;5052072;28;20053;-81
2022/01/25 11:17:20;;;;;;;8.93;4.85;;;3.20;99.90;;;;;;5051988;28;20045;-80
2022/01/25 11:19:48;;;;;;;5.45;4.75;;;3.40;99.90;;;;;;5063216;28;20061;-79
2022/01/25 11:22:19;;;;;;;5.47;4.88;;;3.60;99.90;;;;;;5030807;28;20049;-77
2022/01/25 11:24:53;;;;;;;10.48;4.90;;;3.70;99.90;;;;;;5037963;28;20044;-77
2022/01/25 11:27:23;;;;;;;9.70;8.77;;;3.80;99.90;;;;;;5048662;28;20129;-81
2022/01/25 11:29:54;;;;;;;7.10;4.82;;;3.80;99.90;;;;;;5047789;28;20044;-76
2022/01/25 11:32:29;;;;;;;5.90;4.65;;;3.80;99.90;;;;;;5035800;28;20049;-76
2022/01/25 11:34:58;;;;;;;9.18;4.00;;;3.70;99.90;;;;;;5050148;28;20079;-78
2022/01/25 11:37:36;;;;;;;7.05;4.20;;;3.60;99.90;;;;;;5049650;28;20076;-78
2022/01/25 11:40:21;;;;;;;7.15;4.60;;;3.50;99.90;;;;;;5051094;28;20114;-75
2022/01/25 11:42:50;;;;;;;5.65;4.95;;;3.50;99.90;;;;;;5050411;28;20053;-74
2022/01/25 11:45:22;;;;;;;17.83;8.23;;;3.40;99.90;;;;;;5051591;28;20041;-75
2022/01/25 11:47:53;;;;;;;9.05;6.45;;;3.30;99.90;;;;;;5050418;28;20537;-77
2022/01/25 11:50:26;;;;;;;7.07;6.47;;;3.20;99.90;;;;;;5045299;28;20480;-76
2022/01/25 11:53:01;;;;;;;7.80;6.75;;;3.20;99.90;;;;;;5032669;28;20508;-76
2022/01/25 11:55:33;;;;;;;7.82;6.90;;;3.10;99.90;;;;;;5050449;28;20057;-76
2022/01/25 11:58:04;;;;;;;7.63;6.95;;;2.90;99.90;;;;;;5049388;28;20509;-77
2022/01/25 12:00:44;;;;;;;7.55;6.10;;;2.80;99.90;;;;;;5035639;28;20505;-77
2022/01/25 12:03:27;;;;;;;8.23;6.15;;;2.60;99.90;;;;;;5045802;28;20053;-76
2022/01/25 12:06:04;;;;;;;9.27;5.35;;;2.60;99.90;;;;;;5048112;28;20131;-78
2022/01/25 12:08:50;;;;;;;7.00;6.30;;;2.80;99.90;;;;;;5044683;28;20489;-77
2022/01/25 12:11:37;;;;;;;7.00;6.25;;;2.70;99.90;;;;;;5050219;28;20059;-77
2022/01/25 12:14:15;;;;;;;8.82;6.80;;;3.10;99.90;;;;;;5049059;28;20132;-77
2022/01/25 12:16:45;;;;;;;9.60;7.18;;;3.20;99.90;;;;;;5047906;28;20120;-77
2022/01/25 12:19:16;;;;;;;6.05;5.68;;;3.30;99.90;;;;;;5050054;28;20076;-76
2022/01/25 12:22:11;;;;;;;8.88;5.75;;;3.60;99.90;;;;;;5049337;28;20053;-77
2022/01/25 12:25:04;;;;;;;8.13;6.70;;;3.60;99.90;;;;;;5050072;28;20061;-79
2022/01/25 12:27:47;;;;;;;7.38;6.03;;;3.70;99.90;;;;;;5049652;28;20442;-75
2022/01/25 12:30:19;;;;;;;7.07;5.90;;;3.70;99.90;;;;;;5024486;28;20049;-78
2022/01/25 12:32:58;;;;;;;8.18;7.53;;;3.70;99.90;;;;;;5029568;28;20135;-77
2022/01/25 12:35:42;;;;;;;3.83;3.53;;;3.50;99.90;;;;;;5029864;28;20057;-77
2022/01/25 12:38:19;;;;;;;6.05;3.90;;;3.50;99.90;;;;;;5028856;28;20057;-78
2022/01/25 12:41:00;;;;;;;7.53;6.82;;;3.70;99.90;;;;;;5039572;28;20119;-77
2022/01/25 12:43:34;;;;;;;8.25;6.05;;;3.60;99.90;;;;;;5050195;28;20098;-78
2022/01/25 12:46:07;;;;;;;7.72;7.13;;;3.20;99.90;;;;;;5050663;28;20048;-77
2022/01/25 12:48:37;;;;;;;5.30;4.50;;;2.70;99.90;;;;;;5050493;28;20501;-78
2022/01/25 12:51:09;;;;;;;5.90;4.57;;;2.40;99.90;;;;;;5048902;28;20049;-78
2022/01/25 12:53:41;;;;;;;6.38;4.72;;;2.10;99.90;;;;;;5060806;28;20509;-80
2022/01/25 12:56:16;;;;;;;13.68;5.35;;;1.90;99.90;;;;;;5033592;28;20095;-77
2022/01/25 12:58:52;;;;;;;5.20;4.70;;;1.80;99.90;;;;;;5057854;28;20520;-78
2022/01/25 13:01:23;;;;;;;5.75;5.30;;;1.60;99.90;;;;;;5039803;28;20144;-78
2022/01/25 13:03:53;;;;;;;5.28;4.82;;;1.40;99.90;;;;;;5029809;28;20077;-76
2022/01/25 13:06:24;;;;;;;6.97;5.38;;;1.30;99.90;;;;;;5038054;28;20144;-77
2022/01/25 13:08:57;;;;;;;10.40;7.10;;;1.20;99.90;;;;;;5048282;28;20433;-78
2022/01/25 13:11:40;;;;;;;5.80;5.25;;;1.10;99.90;;;;;;5043160;28;20041;-78
2022/01/25 13:14:29;;;;;;;5.55;5.13;;;1.00;99.90;;;;;;5048509;28;20052;-77
2022/01/25 13:17:00;;;;;;;9.48;5.53;;;0.90;99.90;;;;;;5049113;28;20048;-76
2022/01/25 13:19:32;;;;;;;5.88;5.32;;;0.80;99.90;;;;;;5049080;28;20527;-79
2022/01/25 13:22:07;;;;;;;6.10;5.63;;;0.80;99.90;;;;;;5048737;28;20099;-79
2022/01/25 13:24:42;;;;;;;7.72;6.28;;;0.70;99.90;;;;;;5044598;28;20037;-80
2022/01/25 13:27:14;;;;;;;6.53;5.10;;;0.70;99.90;;;;;;5041132;28;20049;-78
2022/01/25 13:32:41;;;;;;;9.00;6.28;;;0.50;99.90;;;;;;5047534;28;20513;-78
2022/01/25 13:35:21;;;;;;;5.95;5.25;;;0.50;99.90;;;;;;5046054;28;20417;-76
2022/01/25 13:38:08;;;;;;;5.32;4.53;;;0.40;99.90;;;;;;5042579;28;20068;-80
2022/01/25 13:40:47;;;;;;;5.50;2.85;;;0.30;99.90;;;;;;5044719;28;20115;-78
2022/01/25 13:46:19;;;;;;;7.10;4.00;;;0.40;99.90;;;;;;5041024;28;20045;-78
2022/01/25 13:48:50;;;;;;;7.35;4.00;;;0.30;99.90;;;;;;5045149;28;20406;-79
2022/01/25 13:51:21;;;;;;;7.38;4.32;;;0.40;99.90;;;;;;5066285;28;20690;-78
2022/01/25 13:53:55;;;;;;;7.18;4.00;;;0.30;99.90;;;;;;5047051;28;20056;-78
2022/01/25 13:56:26;;;;;;;7.90;5.47;;;0.30;99.90;;;;;;5048429;28;20425;-78
2022/01/25 13:58:54;;;;;;;5.35;4.53;;;0.20;99.90;;;;;;5035505;28;20057;-80
2022/01/25 14:01:26;;;;;;;5.05;4.25;;;0.20;99.90;;;;;;5030781;28;20056;-77
2022/01/25 14:03:58;;;;;;;5.65;4.50;;;0.20;99.90;;;;;;5043392;28;20055;-78
2022/01/25 14:06:29;;;;;;;5.22;4.72;;;0.20;99.90;;;;;;5050940;28;20076;-77
2022/01/25 14:09:05;;;;;;;9.57;5.55;;;0.20;99.90;;;;;;5050637;28;20126;-77
2022/01/25 14:11:52;;;;;;;6.93;5.68;;;0.10;99.90;;;;;;5050386;28;20060;-78
2022/01/25 14:23:06;;;;;;;4.97;4.57;;;-0.10;99.90;;;;;;5064413;28;20136;-79
2022/01/25 14:25:36;;;;;;;6.25;4.50;;;-0.20;99.90;;;;;;5050915;28;20465;-80
2022/01/25 14:28:07;;;;;;;6.95;5.53;;;-0.30;99.90;;;;;;5016970;28;20080;-80
2022/01/25 14:30:37;;;;;;;4.63;4.22;;;-0.30;99.90;;;;;;5050179;28;20052;-80
2022/01/25 14:33:11;;;;;;;5.53;4.78;;;-0.40;99.90;;;;;;5036763;28;20145;-79
2022/01/25 14:35:44;;;;;;;8.20;5.68;;;-0.40;99.90;;;;;;5037010;28;20053;-79